Osg Courageous — WDF7122 — position and weather

sailwx.info

Track history (hours):
 
Tides and Currents Weather Stations Pressure Air Temp Water Temp Dewpoint Dewpoint Depression Visibility Wind Speed Wind Dir Waves Ship Positions

Osg Courageous

Owner: OSG Ship Management, Inc, Tampa, FL. More information available from US FCC via Universal Licensing System and Coast Guard Vessel Documentation Center.

Last reported at 2016-Feb-01 17:34 UTC. Time now 2016-Feb-10 20:06 UTC.
Position N 25°27' W 080°02'.
Warning: this ship's position is 9 days out of date.

Length 187 m; draft 11 m.

Type: Tanker. MMSI: 367481310.

Date/timePositionNaut miles runAvg speedWind from/ knotsBaromVisibWave heightAir tempDewpointWater temp
2016-Feb-01 17:34N 25°27' W 080°02'10 9.8
2016-Feb-01 16:34N 25°37' W 080°02'1111.4
2016-Feb-01 15:34N 25°49' W 080°02'1212.2
2016-Feb-01 14:33N 26°01' W 080°02'1010.5
2016-Feb-01 13:33N 26°11' W 080°02'1010.2
2016-Feb-01 12:34N 26°21' W 080°01'1010.3
2016-Feb-01 11:34N 26°32' W 079°60'10 9.9
2016-Feb-01 10:34N 26°41' W 079°59'10 9.6
2016-Feb-01 09:32N 26°51' W 079°59'9 8.9
2016-Feb-01 08:34N 27°00' W 079°59'  
2016-Jan-25 20:30N 27°01' W 079°57'1313.5
2016-Jan-25 19:32N 26°48' W 079°56'1313.1
2016-Jan-25 18:34N 26°35' W 079°57'1212.2
2016-Jan-25 17:34N 26°23' W 079°59'1312.7
2016-Jan-25 16:34N 26°10' W 079°60'1313.2
2016-Jan-25 15:34N 25°57' W 080°01'1313.0
2016-Jan-25 14:34N 25°44' W 080°01'1313.4
2016-Jan-25 13:34N 25°31' W 080°01'  
Track history (hours):
 
Tides and Currents Weather Stations Pressure Air Temp Water Temp Dewpoint Dewpoint Depression Visibility Wind Speed Wind Dir Waves Ship Positions

Osg Courageous

Owner: OSG Ship Management, Inc, Tampa, FL. More information available from US FCC via Universal Licensing System and Coast Guard Vessel Documentation Center.

Last reported at 2016-Feb-01 17:34 UTC. Time now 2016-Feb-10 20:06 UTC.
Position N 25°27' W 080°02'.
Warning: this ship's position is 9 days out of date.

Length 187 m; draft 11 m.

Type: Tanker. MMSI: 367481310.

Date/timePositionNaut miles runAvg speedWind from/ knotsBaromVisibWave heightAir tempDewpointWater temp
2016-Feb-01 17:34N 25°27' W 080°02'10 9.8
2016-Feb-01 16:34N 25°37' W 080°02'1111.4
2016-Feb-01 15:34N 25°49' W 080°02'1212.2
2016-Feb-01 14:33N 26°01' W 080°02'1010.5
2016-Feb-01 13:33N 26°11' W 080°02'1010.2
2016-Feb-01 12:34N 26°21' W 080°01'1010.3
2016-Feb-01 11:34N 26°32' W 079°60'10 9.9
2016-Feb-01 10:34N 26°41' W 079°59'10 9.6
2016-Feb-01 09:32N 26°51' W 079°59'9 8.9
2016-Feb-01 08:34N 27°00' W 079°59'  
2016-Jan-25 20:30N 27°01' W 079°57'1313.5
2016-Jan-25 19:32N 26°48' W 079°56'1313.1
2016-Jan-25 18:34N 26°35' W 079°57'1212.2
2016-Jan-25 17:34N 26°23' W 079°59'1312.7
2016-Jan-25 16:34N 26°10' W 079°60'1313.2
2016-Jan-25 15:34N 25°57' W 080°01'1313.0
2016-Jan-25 14:34N 25°44' W 080°01'1313.4
2016-Jan-25 13:34N 25°31' W 080°01'  

Dump ship's entire track history